sensor_id;sensor_type;location;lat;lon;timestamp;P1;durP1;ratioP1;P2;durP2;ratioP2
17714;SDS011;8977;50.902;4.314;2023-06-14T00:00:47;6.70;;;5.70;;
17714;SDS011;8977;50.902;4.314;2023-06-14T00:03:14;8.18;;;5.85;;
17714;SDS011;8977;50.902;4.314;2023-06-14T00:05:42;7.28;;;5.90;;
17714;SDS011;8977;50.902;4.314;2023-06-14T00:08:11;6.55;;;5.88;;
17714;SDS011;8977;50.902;4.314;2023-06-14T00:10:40;8.52;;;6.00;;
17714;SDS011;8977;50.902;4.314;2023-06-14T00:13:07;6.93;;;6.05;;
17714;SDS011;8977;50.902;4.314;2023-06-14T00:15:34;9.18;;;5.90;;
17714;SDS011;8977;50.902;4.314;2023-06-14T00:18:02;6.85;;;5.50;;
17714;SDS011;8977;50.902;4.314;2023-06-14T00:20:30;6.88;;;5.50;;
17714;SDS011;8977;50.902;4.314;2023-06-14T00:22:58;6.78;;;5.72;;
17714;SDS011;8977;50.902;4.314;2023-06-14T00:25:28;8.93;;;6.35;;
17714;SDS011;8977;50.902;4.314;2023-06-14T00:27:56;6.30;;;5.70;;
17714;SDS011;8977;50.902;4.314;2023-06-14T00:30:24;8.38;;;5.70;;
17714;SDS011;8977;50.902;4.314;2023-06-14T00:32:55;6.30;;;5.70;;
17714;SDS011;8977;50.902;4.314;2023-06-14T00:35:22;6.45;;;5.65;;
17714;SDS011;8977;50.902;4.314;2023-06-14T00:37:50;6.80;;;5.80;;
17714;SDS011;8977;50.902;4.314;2023-06-14T00:40:17;7.82;;;5.55;;
17714;SDS011;8977;50.902;4.314;2023-06-14T00:42:44;6.28;;;5.70;;
17714;SDS011;8977;50.902;4.314;2023-06-14T00:45:12;7.53;;;5.57;;
17714;SDS011;8977;50.902;4.314;2023-06-14T00:47:40;7.22;;;6.05;;
17714;SDS011;8977;50.902;4.314;2023-06-14T00:50:08;7.30;;;6.00;;
17714;SDS011;8977;50.902;4.314;2023-06-14T00:52:36;8.65;;;5.68;;
17714;SDS011;8977;50.902;4.314;2023-06-14T00:55:03;6.45;;;5.88;;
17714;SDS011;8977;50.902;4.314;2023-06-14T00:57:31;6.90;;;5.82;;
17714;SDS011;8977;50.902;4.314;2023-06-14T01:00:02;7.55;;;5.82;;
17714;SDS011;8977;50.902;4.314;2023-06-14T01:02:35;7.60;;;6.22;;
17714;SDS011;8977;50.902;4.314;2023-06-14T01:05:02;8.43;;;6.60;;
17714;SDS011;8977;50.902;4.314;2023-06-14T01:07:33;6.28;;;5.68;;
17714;SDS011;8977;50.902;4.314;2023-06-14T01:10:16;6.05;;;5.53;;
17714;SDS011;8977;50.902;4.314;2023-06-14T01:12:55;8.20;;;6.15;;
17714;SDS011;8977;50.902;4.314;2023-06-14T01:15:29;6.72;;;5.60;;
17714;SDS011;8977;50.902;4.314;2023-06-14T01:17:59;6.80;;;6.13;;
17714;SDS011;8977;50.902;4.314;2023-06-14T01:20:29;7.03;;;5.85;;
17714;SDS011;8977;50.902;4.314;2023-06-14T01:22:59;7.80;;;6.13;;
17714;SDS011;8977;50.902;4.314;2023-06-14T01:25:26;9.18;;;5.85;;
17714;SDS011;8977;50.902;4.314;2023-06-14T01:27:53;7.28;;;6.20;;
17714;SDS011;8977;50.902;4.314;2023-06-14T01:30:24;9.32;;;6.18;;
17714;SDS011;8977;50.902;4.314;2023-06-14T01:32:51;8.38;;;6.50;;
17714;SDS011;8977;50.902;4.314;2023-06-14T01:35:19;7.60;;;6.05;;
17714;SDS011;8977;50.902;4.314;2023-06-14T01:37:47;7.05;;;6.28;;
17714;SDS011;8977;50.902;4.314;2023-06-14T01:40:16;7.20;;;6.50;;
17714;SDS011;8977;50.902;4.314;2023-06-14T01:42:46;7.03;;;6.30;;
17714;SDS011;8977;50.902;4.314;2023-06-14T01:45:15;8.90;;;6.20;;
17714;SDS011;8977;50.902;4.314;2023-06-14T01:47:43;8.25;;;6.43;;
17714;SDS011;8977;50.902;4.314;2023-06-14T01:50:11;7.57;;;6.05;;
17714;SDS011;8977;50.902;4.314;2023-06-14T01:52:38;7.47;;;6.18;;
17714;SDS011;8977;50.902;4.314;2023-06-14T01:55:06;9.27;;;6.03;;
17714;SDS011;8977;50.902;4.314;2023-06-14T01:57:35;7.13;;;6.43;;
17714;SDS011;8977;50.902;4.314;2023-06-14T02:00:02;8.30;;;6.60;;
17714;SDS011;8977;50.902;4.314;2023-06-14T02:02:33;10.35;;;6.57;;
17714;SDS011;8977;50.902;4.314;2023-06-14T02:05:00;6.93;;;6.25;;
17714;SDS011;8977;50.902;4.314;2023-06-14T02:07:27;6.95;;;6.25;;
17714;SDS011;8977;50.902;4.314;2023-06-14T02:09:54;9.75;;;6.65;;
17714;SDS011;8977;50.902;4.314;2023-06-14T02:12:21;8.63;;;6.57;;
17714;SDS011;8977;50.902;4.314;2023-06-14T02:14:49;9.68;;;6.80;;
17714;SDS011;8977;50.902;4.314;2023-06-14T02:17:16;7.38;;;6.60;;
17714;SDS011;8977;50.902;4.314;2023-06-14T02:19:43;7.78;;;6.93;;
17714;SDS011;8977;50.902;4.314;2023-06-14T02:22:10;9.35;;;6.50;;
17714;SDS011;8977;50.902;4.314;2023-06-14T02:24:37;7.45;;;6.80;;
17714;SDS011;8977;50.902;4.314;2023-06-14T02:27:04;7.00;;;6.40;;
17714;SDS011;8977;50.902;4.314;2023-06-14T02:29:31;7.75;;;6.70;;
17714;SDS011;8977;50.902;4.314;2023-06-14T02:31:59;7.22;;;6.40;;
17714;SDS011;8977;50.902;4.314;2023-06-14T02:34:26;8.00;;;6.38;;
17714;SDS011;8977;50.902;4.314;2023-06-14T02:36:53;7.78;;;6.80;;
17714;SDS011;8977;50.902;4.314;2023-06-14T02:39:20;7.28;;;6.53;;
17714;SDS011;8977;50.902;4.314;2023-06-14T02:41:48;8.30;;;6.93;;
17714;SDS011;8977;50.902;4.314;2023-06-14T02:44:17;7.88;;;7.10;;
17714;SDS011;8977;50.902;4.314;2023-06-14T02:46:44;7.53;;;6.68;;
17714;SDS011;8977;50.902;4.314;2023-06-14T02:49:12;8.45;;;7.13;;
17714;SDS011;8977;50.902;4.314;2023-06-14T02:51:39;8.02;;;7.22;;
17714;SDS011;8977;50.902;4.314;2023-06-14T02:54:07;7.43;;;6.68;;
17714;SDS011;8977;50.902;4.314;2023-06-14T02:56:33;9.90;;;7.20;;
17714;SDS011;8977;50.902;4.314;2023-06-14T02:59:01;7.93;;;7.13;;
17714;SDS011;8977;50.902;4.314;2023-06-14T03:01:28;7.60;;;6.90;;
17714;SDS011;8977;50.902;4.314;2023-06-14T03:03:59;7.88;;;6.97;;
17714;SDS011;8977;50.902;4.314;2023-06-14T03:06:30;7.65;;;6.95;;
17714;SDS011;8977;50.902;4.314;2023-06-14T03:08:58;8.00;;;7.20;;
17714;SDS011;8977;50.902;4.314;2023-06-14T03:11:26;9.30;;;6.72;;
17714;SDS011;8977;50.902;4.314;2023-06-14T03:13:53;7.82;;;7.03;;
17714;SDS011;8977;50.902;4.314;2023-06-14T03:16:21;8.60;;;7.22;;
17714;SDS011;8977;50.902;4.314;2023-06-14T03:18:49;8.82;;;7.93;;
17714;SDS011;8977;50.902;4.314;2023-06-14T03:21:16;7.95;;;7.10;;
17714;SDS011;8977;50.902;4.314;2023-06-14T03:23:44;7.93;;;7.13;;
17714;SDS011;8977;50.902;4.314;2023-06-14T03:26:11;7.60;;;6.80;;
17714;SDS011;8977;50.902;4.314;2023-06-14T03:28:41;8.27;;;7.47;;
17714;SDS011;8977;50.902;4.314;2023-06-14T03:31:08;11.18;;;7.03;;
17714;SDS011;8977;50.902;4.314;2023-06-14T03:33:35;8.88;;;7.53;;
17714;SDS011;8977;50.902;4.314;2023-06-14T03:36:01;8.35;;;7.35;;
17714;SDS011;8977;50.902;4.314;2023-06-14T03:38:29;9.10;;;7.35;;
17714;SDS011;8977;50.902;4.314;2023-06-14T03:40:57;10.48;;;7.32;;
17714;SDS011;8977;50.902;4.314;2023-06-14T03:43:24;9.07;;;7.40;;
17714;SDS011;8977;50.902;4.314;2023-06-14T03:45:52;8.00;;;7.10;;
17714;SDS011;8977;50.902;4.314;2023-06-14T03:48:19;9.23;;;7.38;;
17714;SDS011;8977;50.902;4.314;2023-06-14T03:50:46;9.18;;;7.68;;
17714;SDS011;8977;50.902;4.314;2023-06-14T03:53:13;14.07;;;7.70;;
17714;SDS011;8977;50.902;4.314;2023-06-14T03:55:40;7.85;;;7.15;;
17714;SDS011;8977;50.902;4.314;2023-06-14T03:58:09;8.68;;;7.78;;
17714;SDS011;8977;50.902;4.314;2023-06-14T04:00:36;11.18;;;7.43;;
17714;SDS011;8977;50.902;4.314;2023-06-14T04:03:03;8.13;;;7.22;;
17714;SDS011;8977;50.902;4.314;2023-06-14T04:05:30;7.57;;;6.97;;
17714;SDS011;8977;50.902;4.314;2023-06-14T04:07:57;9.90;;;7.50;;
17714;SDS011;8977;50.902;4.314;2023-06-14T04:10:26;8.48;;;7.30;;
17714;SDS011;8977;50.902;4.314;2023-06-14T04:12:53;8.20;;;7.18;;
17714;SDS011;8977;50.902;4.314;2023-06-14T04:15:21;9.30;;;7.22;;
17714;SDS011;8977;50.902;4.314;2023-06-14T04:17:48;9.88;;;7.65;;
17714;SDS011;8977;50.902;4.314;2023-06-14T04:20:15;8.23;;;7.00;;
17714;SDS011;8977;50.902;4.314;2023-06-14T04:22:43;8.88;;;7.32;;
17714;SDS011;8977;50.902;4.314;2023-06-14T04:25:09;7.93;;;7.18;;
17714;SDS011;8977;50.902;4.314;2023-06-14T04:27:37;10.00;;;6.82;;
17714;SDS011;8977;50.902;4.314;2023-06-14T04:30:05;7.53;;;6.70;;
17714;SDS011;8977;50.902;4.314;2023-06-14T04:32:34;9.27;;;7.30;;
17714;SDS011;8977;50.902;4.314;2023-06-14T04:35:03;8.80;;;7.50;;
17714;SDS011;8977;50.902;4.314;2023-06-14T04:37:31;9.25;;;6.63;;
17714;SDS011;8977;50.902;4.314;2023-06-14T04:39:58;9.43;;;7.50;;
17714;SDS011;8977;50.902;4.314;2023-06-14T04:42:25;8.15;;;7.35;;
17714;SDS011;8977;50.902;4.314;2023-06-14T04:44:56;9.70;;;7.60;;
17714;SDS011;8977;50.902;4.314;2023-06-14T04:47:23;11.38;;;7.68;;
17714;SDS011;8977;50.902;4.314;2023-06-14T04:49:56;9.52;;;7.00;;
17714;SDS011;8977;50.902;4.314;2023-06-14T04:52:23;9.23;;;7.22;;
17714;SDS011;8977;50.902;4.314;2023-06-14T04:54:51;8.52;;;7.07;;
17714;SDS011;8977;50.902;4.314;2023-06-14T04:57:19;8.45;;;7.65;;
17714;SDS011;8977;50.902;4.314;2023-06-14T04:59:47;11.23;;;7.20;;
17714;SDS011;8977;50.902;4.314;2023-06-14T05:02:20;11.75;;;7.78;;
17714;SDS011;8977;50.902;4.314;2023-06-14T05:04:48;10.45;;;7.60;;
17714;SDS011;8977;50.902;4.314;2023-06-14T05:07:17;15.05;;;8.05;;
17714;SDS011;8977;50.902;4.314;2023-06-14T05:09:44;9.63;;;7.30;;
17714;SDS011;8977;50.902;4.314;2023-06-14T05:12:11;10.35;;;7.65;;
17714;SDS011;8977;50.902;4.314;2023-06-14T05:14:38;11.02;;;7.35;;
17714;SDS011;8977;50.902;4.314;2023-06-14T05:17:05;12.82;;;8.52;;
17714;SDS011;8977;50.902;4.314;2023-06-14T05:19:32;12.75;;;7.88;;
17714;SDS011;8977;50.902;4.314;2023-06-14T05:21:59;10.43;;;7.13;;
17714;SDS011;8977;50.902;4.314;2023-06-14T05:24:29;9.98;;;8.00;;
17714;SDS011;8977;50.902;4.314;2023-06-14T05:26:57;10.23;;;7.88;;
17714;SDS011;8977;50.902;4.314;2023-06-14T05:29:24;9.60;;;7.63;;
17714;SDS011;8977;50.902;4.314;2023-06-14T05:31:51;11.13;;;7.75;;
17714;SDS011;8977;50.902;4.314;2023-06-14T05:34:18;10.57;;;7.72;;
17714;SDS011;8977;50.902;4.314;2023-06-14T05:36:44;9.30;;;7.35;;
17714;SDS011;8977;50.902;4.314;2023-06-14T05:39:11;8.23;;;7.13;;
17714;SDS011;8977;50.902;4.314;2023-06-14T05:41:41;12.05;;;7.80;;
17714;SDS011;8977;50.902;4.314;2023-06-14T05:44:08;10.55;;;7.40;;
17714;SDS011;8977;50.902;4.314;2023-06-14T05:46:35;10.02;;;7.43;;
17714;SDS011;8977;50.902;4.314;2023-06-14T05:49:02;9.10;;;7.50;;
17714;SDS011;8977;50.902;4.314;2023-06-14T05:51:29;10.80;;;7.10;;
17714;SDS011;8977;50.902;4.314;2023-06-14T05:53:55;12.35;;;7.35;;
17714;SDS011;8977;50.902;4.314;2023-06-14T05:56:22;8.48;;;7.15;;
17714;SDS011;8977;50.902;4.314;2023-06-14T05:58:52;8.43;;;7.50;;
17714;SDS011;8977;50.902;4.314;2023-06-14T06:01:19;9.25;;;7.60;;
17714;SDS011;8977;50.902;4.314;2023-06-14T06:03:46;8.95;;;7.85;;
17714;SDS011;8977;50.902;4.314;2023-06-14T06:06:13;10.93;;;7.50;;
17714;SDS011;8977;50.902;4.314;2023-06-14T06:08:41;10.30;;;7.72;;
17714;SDS011;8977;50.902;4.314;2023-06-14T06:11:08;10.77;;;7.03;;
17714;SDS011;8977;50.902;4.314;2023-06-14T06:13:35;9.20;;;7.32;;
17714;SDS011;8977;50.902;4.314;2023-06-14T06:16:05;8.95;;;7.63;;
17714;SDS011;8977;50.902;4.314;2023-06-14T06:18:32;8.05;;;6.93;;
17714;SDS011;8977;50.902;4.314;2023-06-14T06:20:59;11.05;;;7.47;;
17714;SDS011;8977;50.902;4.314;2023-06-14T06:23:28;12.18;;;7.88;;
17714;SDS011;8977;50.902;4.314;2023-06-14T06:25:55;10.20;;;7.15;;
17714;SDS011;8977;50.902;4.314;2023-06-14T06:28:21;10.27;;;7.45;;
17714;SDS011;8977;50.902;4.314;2023-06-14T06:30:48;8.02;;;7.10;;
17714;SDS011;8977;50.902;4.314;2023-06-14T06:33:17;8.65;;;7.60;;
17714;SDS011;8977;50.902;4.314;2023-06-14T06:35:44;8.00;;;7.20;;
17714;SDS011;8977;50.902;4.314;2023-06-14T06:38:10;9.18;;;6.78;;
17714;SDS011;8977;50.902;4.314;2023-06-14T06:40:37;8.73;;;7.25;;
17714;SDS011;8977;50.902;4.314;2023-06-14T06:43:04;7.75;;;6.85;;
17714;SDS011;8977;50.902;4.314;2023-06-14T06:45:31;10.35;;;7.15;;
17714;SDS011;8977;50.902;4.314;2023-06-14T06:47:58;11.23;;;7.00;;
17714;SDS011;8977;50.902;4.314;2023-06-14T06:50:26;7.90;;;6.78;;
17714;SDS011;8977;50.902;4.314;2023-06-14T06:52:53;12.20;;;7.18;;
17714;SDS011;8977;50.902;4.314;2023-06-14T06:55:20;10.43;;;6.90;;
17714;SDS011;8977;50.902;4.314;2023-06-14T06:57:47;12.15;;;6.97;;
17714;SDS011;8977;50.902;4.314;2023-06-14T07:00:15;8.82;;;6.30;;
17714;SDS011;8977;50.902;4.314;2023-06-14T07:02:42;11.68;;;6.90;;
17714;SDS011;8977;50.902;4.314;2023-06-14T07:05:09;9.07;;;7.03;;
17714;SDS011;8977;50.902;4.314;2023-06-14T07:07:37;9.57;;;7.13;;
17714;SDS011;8977;50.902;4.314;2023-06-14T07:10:05;8.88;;;6.53;;
17714;SDS011;8977;50.902;4.314;2023-06-14T07:12:32;9.50;;;7.05;;
17714;SDS011;8977;50.902;4.314;2023-06-14T07:15:04;10.57;;;6.85;;
17714;SDS011;8977;50.902;4.314;2023-06-14T07:17:32;7.75;;;6.70;;
17714;SDS011;8977;50.902;4.314;2023-06-14T07:19:59;10.43;;;6.20;;
17714;SDS011;8977;50.902;4.314;2023-06-14T07:22:30;11.18;;;6.95;;
17714;SDS011;8977;50.902;4.314;2023-06-14T07:24:58;8.60;;;6.45;;
17714;SDS011;8977;50.902;4.314;2023-06-14T07:27:25;8.25;;;7.00;;
17714;SDS011;8977;50.902;4.314;2023-06-14T07:29:52;8.20;;;6.35;;
17714;SDS011;8977;50.902;4.314;2023-06-14T07:32:19;6.80;;;6.10;;
17714;SDS011;8977;50.902;4.314;2023-06-14T07:34:46;7.78;;;6.32;;
17714;SDS011;8977;50.902;4.314;2023-06-14T07:37:13;11.40;;;6.30;;
17714;SDS011;8977;50.902;4.314;2023-06-14T07:39:39;8.82;;;6.15;;
17714;SDS011;8977;50.902;4.314;2023-06-14T07:42:08;7.63;;;6.80;;
17714;SDS011;8977;50.902;4.314;2023-06-14T07:44:35;9.30;;;6.32;;
17714;SDS011;8977;50.902;4.314;2023-06-14T07:47:02;11.95;;;7.05;;
17714;SDS011;8977;50.902;4.314;2023-06-14T07:49:29;11.55;;;6.78;;
17714;SDS011;8977;50.902;4.314;2023-06-14T07:51:56;12.30;;;6.72;;
17714;SDS011;8977;50.902;4.314;2023-06-14T07:54:23;13.75;;;7.10;;
17714;SDS011;8977;50.902;4.314;2023-06-14T07:56:51;8.05;;;6.68;;
17714;SDS011;8977;50.902;4.314;2023-06-14T07:59:19;10.13;;;6.68;;
17714;SDS011;8977;50.902;4.314;2023-06-14T08:01:46;9.77;;;6.40;;
17714;SDS011;8977;50.902;4.314;2023-06-14T08:04:13;9.35;;;6.47;;
17714;SDS011;8977;50.902;4.314;2023-06-14T08:06:40;8.27;;;6.47;;
17714;SDS011;8977;50.902;4.314;2023-06-14T08:09:09;9.00;;;6.57;;
17714;SDS011;8977;50.902;4.314;2023-06-14T08:11:36;10.77;;;6.75;;
17714;SDS011;8977;50.902;4.314;2023-06-14T08:14:03;9.55;;;6.18;;
17714;SDS011;8977;50.902;4.314;2023-06-14T08:16:31;8.65;;;6.63;;
17714;SDS011;8977;50.902;4.314;2023-06-14T08:18:58;7.65;;;6.28;;
17714;SDS011;8977;50.902;4.314;2023-06-14T08:21:26;10.32;;;5.90;;
17714;SDS011;8977;50.902;4.314;2023-06-14T08:23:54;11.52;;;7.00;;
17714;SDS011;8977;50.902;4.314;2023-06-14T08:26:21;9.82;;;6.47;;
17714;SDS011;8977;50.902;4.314;2023-06-14T08:28:48;10.90;;;6.60;;
17714;SDS011;8977;50.902;4.314;2023-06-14T08:31:14;8.65;;;6.38;;
17714;SDS011;8977;50.902;4.314;2023-06-14T08:33:43;8.80;;;5.85;;
17714;SDS011;8977;50.902;4.314;2023-06-14T08:36:10;8.32;;;5.97;;
17714;SDS011;8977;50.902;4.314;2023-06-14T08:38:37;11.07;;;6.13;;
17714;SDS011;8977;50.902;4.314;2023-06-14T08:41:05;8.85;;;5.65;;
17714;SDS011;8977;50.902;4.314;2023-06-14T08:43:32;6.03;;;5.43;;
17714;SDS011;8977;50.902;4.314;2023-06-14T08:46:00;7.85;;;5.43;;
17714;SDS011;8977;50.902;4.314;2023-06-14T08:48:30;5.63;;;5.13;;
17714;SDS011;8977;50.902;4.314;2023-06-14T08:51:00;7.80;;;5.47;;
17714;SDS011;8977;50.902;4.314;2023-06-14T08:53:29;7.20;;;5.60;;
17714;SDS011;8977;50.902;4.314;2023-06-14T08:55:59;5.53;;;5.03;;
17714;SDS011;8977;50.902;4.314;2023-06-14T08:58:26;6.43;;;5.70;;
17714;SDS011;8977;50.902;4.314;2023-06-14T09:00:56;6.57;;;5.55;;
17714;SDS011;8977;50.902;4.314;2023-06-14T09:03:24;9.50;;;6.15;;
17714;SDS011;8977;50.902;4.314;2023-06-14T09:05:54;6.25;;;5.63;;
17714;SDS011;8977;50.902;4.314;2023-06-14T09:08:25;8.95;;;6.60;;
17714;SDS011;8977;50.902;4.314;2023-06-14T09:10:55;6.30;;;5.70;;
17714;SDS011;8977;50.902;4.314;2023-06-14T09:13:22;6.68;;;6.07;;
17714;SDS011;8977;50.902;4.314;2023-06-14T09:15:49;6.65;;;5.78;;
17714;SDS011;8977;50.902;4.314;2023-06-14T09:18:16;10.02;;;6.43;;
17714;SDS011;8977;50.902;4.314;2023-06-14T09:20:45;8.43;;;6.18;;
17714;SDS011;8977;50.902;4.314;2023-06-14T09:23:13;10.48;;;5.82;;
17714;SDS011;8977;50.902;4.314;2023-06-14T09:25:47;7.07;;;5.80;;
17714;SDS011;8977;50.902;4.314;2023-06-14T09:28:14;9.32;;;6.10;;
17714;SDS011;8977;50.902;4.314;2023-06-14T09:30:41;8.75;;;6.18;;
17714;SDS011;8977;50.902;4.314;2023-06-14T09:33:08;10.02;;;6.05;;
17714;SDS011;8977;50.902;4.314;2023-06-14T09:35:35;10.52;;;6.53;;
17714;SDS011;8977;50.902;4.314;2023-06-14T09:38:02;7.50;;;6.22;;
17714;SDS011;8977;50.902;4.314;2023-06-14T09:40:31;7.38;;;5.32;;
17714;SDS011;8977;50.902;4.314;2023-06-14T09:43:03;6.28;;;5.65;;
17714;SDS011;8977;50.902;4.314;2023-06-14T09:45:33;6.35;;;5.78;;
17714;SDS011;8977;50.902;4.314;2023-06-14T09:48:00;8.13;;;5.45;;
17714;SDS011;8977;50.902;4.314;2023-06-14T09:50:27;6.57;;;5.60;;
17714;SDS011;8977;50.902;4.314;2023-06-14T09:52:54;9.90;;;5.68;;
17714;SDS011;8977;50.902;4.314;2023-06-14T09:55:27;9.70;;;5.80;;
17714;SDS011;8977;50.902;4.314;2023-06-14T09:57:56;8.07;;;6.30;;
17714;SDS011;8977;50.902;4.314;2023-06-14T10:00:27;8.63;;;5.95;;
17714;SDS011;8977;50.902;4.314;2023-06-14T10:02:58;5.88;;;5.25;;
17714;SDS011;8977;50.902;4.314;2023-06-14T10:05:30;5.88;;;5.35;;
17714;SDS011;8977;50.902;4.314;2023-06-14T10:07:59;6.28;;;5.68;;
17714;SDS011;8977;50.902;4.314;2023-06-14T10:10:29;8.40;;;5.38;;
17714;SDS011;8977;50.902;4.314;2023-06-14T10:12:57;6.72;;;5.22;;
17714;SDS011;8977;50.902;4.314;2023-06-14T10:15:28;6.50;;;5.10;;
17714;SDS011;8977;50.902;4.314;2023-06-14T10:18:04;7.55;;;5.68;;
17714;SDS011;8977;50.902;4.314;2023-06-14T10:20:41;6.10;;;5.50;;
17714;SDS011;8977;50.902;4.314;2023-06-14T10:23:16;5.95;;;5.45;;
17714;SDS011;8977;50.902;4.314;2023-06-14T10:25:49;7.18;;;5.70;;
17714;SDS011;8977;50.902;4.314;2023-06-14T10:28:16;8.70;;;5.28;;
17714;SDS011;8977;50.902;4.314;2023-06-14T10:31:17;6.30;;;5.00;;
17714;SDS011;8977;50.902;4.314;2023-06-14T10:33:48;7.32;;;5.40;;
17714;SDS011;8977;50.902;4.314;2023-06-14T10:36:26;5.30;;;4.80;;
17714;SDS011;8977;50.902;4.314;2023-06-14T10:38:59;6.18;;;4.90;;
17714;SDS011;8977;50.902;4.314;2023-06-14T10:41:27;5.53;;;5.03;;
17714;SDS011;8977;50.902;4.314;2023-06-14T10:47:07;5.40;;;4.90;;
17714;SDS011;8977;50.902;4.314;2023-06-14T10:49:36;5.00;;;4.50;;
17714;SDS011;8977;50.902;4.314;2023-06-14T10:52:08;5.13;;;4.60;;
17714;SDS011;8977;50.902;4.314;2023-06-14T10:54:59;5.97;;;4.60;;
17714;SDS011;8977;50.902;4.314;2023-06-14T10:57:31;5.95;;;4.60;;
17714;SDS011;8977;50.902;4.314;2023-06-14T10:59:59;6.90;;;5.10;;
17714;SDS011;8977;50.902;4.314;2023-06-14T11:02:43;4.95;;;4.35;;
17714;SDS011;8977;50.902;4.314;2023-06-14T11:05:21;5.85;;;4.80;;
17714;SDS011;8977;50.902;4.314;2023-06-14T11:07:55;6.57;;;4.13;;
17714;SDS011;8977;50.902;4.314;2023-06-14T11:10:35;6.00;;;4.90;;
17714;SDS011;8977;50.902;4.314;2023-06-14T11:13:03;6.53;;;5.22;;
17714;SDS011;8977;50.902;4.314;2023-06-14T11:15:31;4.97;;;4.47;;
17714;SDS011;8977;50.902;4.314;2023-06-14T11:18:01;5.53;;;4.80;;
17714;SDS011;8977;50.902;4.314;2023-06-14T11:20:29;6.50;;;4.65;;
17714;SDS011;8977;50.902;4.314;2023-06-14T11:22:57;5.70;;;4.82;;
17714;SDS011;8977;50.902;4.314;2023-06-14T11:25:25;7.30;;;4.53;;
17714;SDS011;8977;50.902;4.314;2023-06-14T11:27:53;5.57;;;4.45;;
17714;SDS011;8977;50.902;4.314;2023-06-14T11:30:20;5.03;;;4.15;;
17714;SDS011;8977;50.902;4.314;2023-06-14T11:32:48;6.95;;;4.70;;
17714;SDS011;8977;50.902;4.314;2023-06-14T11:35:16;4.90;;;4.00;;
17714;SDS011;8977;50.902;4.314;2023-06-14T11:37:44;7.15;;;4.07;;
17714;SDS011;8977;50.902;4.314;2023-06-14T11:40:12;4.53;;;4.00;;
17714;SDS011;8977;50.902;4.314;2023-06-14T11:42:40;7.40;;;4.80;;
17714;SDS011;8977;50.902;4.314;2023-06-14T11:45:07;5.00;;;4.28;;
17714;SDS011;8977;50.902;4.314;2023-06-14T11:47:35;7.35;;;4.25;;
17714;SDS011;8977;50.902;4.314;2023-06-14T11:50:04;4.97;;;3.95;;
17714;SDS011;8977;50.902;4.314;2023-06-14T11:52:35;6.60;;;5.10;;
17714;SDS011;8977;50.902;4.314;2023-06-14T11:55:03;6.30;;;3.78;;
17714;SDS011;8977;50.902;4.314;2023-06-14T11:57:33;5.93;;;4.57;;
17714;SDS011;8977;50.902;4.314;2023-06-14T12:00:03;5.35;;;4.30;;
17714;SDS011;8977;50.902;4.314;2023-06-14T12:02:32;6.90;;;4.63;;
17714;SDS011;8977;50.902;4.314;2023-06-14T12:05:04;5.22;;;4.32;;
17714;SDS011;8977;50.902;4.314;2023-06-14T12:07:32;4.72;;;4.32;;
17714;SDS011;8977;50.902;4.314;2023-06-14T12:10:04;6.03;;;4.25;;
17714;SDS011;8977;50.902;4.314;2023-06-14T12:12:35;4.43;;;4.07;;
17714;SDS011;8977;50.902;4.314;2023-06-14T12:15:04;4.78;;;4.35;;
17714;SDS011;8977;50.902;4.314;2023-06-14T12:17:32;5.55;;;4.05;;
17714;SDS011;8977;50.902;4.314;2023-06-14T12:19:59;4.43;;;4.00;;
17714;SDS011;8977;50.902;4.314;2023-06-14T12:22:37;6.57;;;3.70;;
17714;SDS011;8977;50.902;4.314;2023-06-14T12:25:04;5.18;;;4.13;;
17714;SDS011;8977;50.902;4.314;2023-06-14T12:27:31;6.00;;;3.70;;
17714;SDS011;8977;50.902;4.314;2023-06-14T12:29:58;7.22;;;4.10;;
17714;SDS011;8977;50.902;4.314;2023-06-14T12:32:26;7.40;;;4.68;;
17714;SDS011;8977;50.902;4.314;2023-06-14T12:34:53;6.80;;;4.20;;
17714;SDS011;8977;50.902;4.314;2023-06-14T12:37:20;4.13;;;3.75;;
17714;SDS011;8977;50.902;4.314;2023-06-14T12:39:48;10.10;;;4.25;;
17714;SDS011;8977;50.902;4.314;2023-06-14T12:42:16;5.85;;;4.00;;
17714;SDS011;8977;50.902;4.314;2023-06-14T12:44:43;7.97;;;3.85;;
17714;SDS011;8977;50.902;4.314;2023-06-14T12:47:10;5.60;;;4.28;;
17714;SDS011;8977;50.902;4.314;2023-06-14T12:49:38;4.88;;;3.97;;
17714;SDS011;8977;50.902;4.314;2023-06-14T12:52:06;5.75;;;3.80;;
17714;SDS011;8977;50.902;4.314;2023-06-14T12:54:34;5.95;;;3.70;;
17714;SDS011;8977;50.902;4.314;2023-06-14T12:57:02;6.45;;;4.05;;
17714;SDS011;8977;50.902;4.314;2023-06-14T12:59:30;4.18;;;3.75;;
17714;SDS011;8977;50.902;4.314;2023-06-14T13:01:59;7.97;;;3.83;;
17714;SDS011;8977;50.902;4.314;2023-06-14T13:04:36;4.55;;;3.47;;
17714;SDS011;8977;50.902;4.314;2023-06-14T13:07:03;7.63;;;4.00;;
17714;SDS011;8977;50.902;4.314;2023-06-14T13:09:31;4.25;;;3.72;;
17714;SDS011;8977;50.902;4.314;2023-06-14T13:11:58;6.32;;;3.55;;
17714;SDS011;8977;50.902;4.314;2023-06-14T13:14:26;5.35;;;3.55;;
17714;SDS011;8977;50.902;4.314;2023-06-14T13:16:53;5.68;;;3.63;;
17714;SDS011;8977;50.902;4.314;2023-06-14T13:19:20;7.82;;;3.70;;
17714;SDS011;8977;50.902;4.314;2023-06-14T13:21:47;3.53;;;3.22;;
17714;SDS011;8977;50.902;4.314;2023-06-14T13:24:14;4.97;;;3.72;;
17714;SDS011;8977;50.902;4.314;2023-06-14T13:26:41;3.70;;;3.40;;
17714;SDS011;8977;50.902;4.314;2023-06-14T13:29:08;4.10;;;3.70;;
17714;SDS011;8977;50.902;4.314;2023-06-14T13:31:36;6.45;;;3.50;;
17714;SDS011;8977;50.902;4.314;2023-06-14T13:34:03;3.72;;;3.20;;
17714;SDS011;8977;50.902;4.314;2023-06-14T13:36:30;3.40;;;3.10;;
17714;SDS011;8977;50.902;4.314;2023-06-14T13:38:57;6.18;;;3.47;;
17714;SDS011;8977;50.902;4.314;2023-06-14T13:41:25;7.32;;;3.70;;
17714;SDS011;8977;50.902;4.314;2023-06-14T13:43:56;4.03;;;3.13;;
17714;SDS011;8977;50.902;4.314;2023-06-14T13:46:24;4.50;;;2.67;;
17714;SDS011;8977;50.902;4.314;2023-06-14T13:48:52;3.28;;;2.80;;
17714;SDS011;8977;50.902;4.314;2023-06-14T13:51:19;5.00;;;2.83;;
17714;SDS011;8977;50.902;4.314;2023-06-14T13:53:47;4.30;;;3.03;;
17714;SDS011;8977;50.902;4.314;2023-06-14T13:56:15;3.90;;;3.13;;
17714;SDS011;8977;50.902;4.314;2023-06-14T13:58:43;3.20;;;2.90;;
17714;SDS011;8977;50.902;4.314;2023-06-14T14:01:09;4.38;;;2.70;;
17714;SDS011;8977;50.902;4.314;2023-06-14T14:03:37;3.15;;;2.65;;
17714;SDS011;8977;50.902;4.314;2023-06-14T14:06:05;4.93;;;2.83;;
17714;SDS011;8977;50.902;4.314;2023-06-14T14:08:32;2.60;;;2.40;;
17714;SDS011;8977;50.902;4.314;2023-06-14T14:10:59;3.83;;;2.67;;
17714;SDS011;8977;50.902;4.314;2023-06-14T14:13:26;5.40;;;2.45;;
17714;SDS011;8977;50.902;4.314;2023-06-14T14:15:53;3.92;;;2.70;;
17714;SDS011;8977;50.902;4.314;2023-06-14T14:18:20;2.88;;;2.28;;
17714;SDS011;8977;50.902;4.314;2023-06-14T14:20:47;4.75;;;2.35;;
17714;SDS011;8977;50.902;4.314;2023-06-14T14:23:15;3.70;;;2.08;;
17714;SDS011;8977;50.902;4.314;2023-06-14T14:25:42;3.00;;;2.13;;
17714;SDS011;8977;50.902;4.314;2023-06-14T14:28:09;2.95;;;1.95;;
17714;SDS011;8977;50.902;4.314;2023-06-14T14:30:36;4.40;;;1.75;;
17714;SDS011;8977;50.902;4.314;2023-06-14T14:33:04;4.05;;;1.60;;
17714;SDS011;8977;50.902;4.314;2023-06-14T14:35:31;4.75;;;1.80;;
17714;SDS011;8977;50.902;4.314;2023-06-14T14:37:58;2.90;;;1.73;;
17714;SDS011;8977;50.902;4.314;2023-06-14T14:40:27;1.95;;;1.73;;
17714;SDS011;8977;50.902;4.314;2023-06-14T14:42:54;2.30;;;1.50;;
17714;SDS011;8977;50.902;4.314;2023-06-14T14:45:20;3.35;;;1.70;;
17714;SDS011;8977;50.902;4.314;2023-06-14T14:47:47;2.50;;;1.73;;
17714;SDS011;8977;50.902;4.314;2023-06-14T14:50:14;5.28;;;1.67;;
17714;SDS011;8977;50.902;4.314;2023-06-14T14:52:41;2.63;;;1.60;;
17714;SDS011;8977;50.902;4.314;2023-06-14T14:55:08;1.63;;;1.52;;
17714;SDS011;8977;50.902;4.314;2023-06-14T14:57:37;2.65;;;1.67;;
17714;SDS011;8977;50.902;4.314;2023-06-14T15:00:04;4.00;;;1.58;;
17714;SDS011;8977;50.902;4.314;2023-06-14T15:02:32;2.90;;;1.85;;
17714;SDS011;8977;50.902;4.314;2023-06-14T15:04:58;2.33;;;1.63;;
17714;SDS011;8977;50.902;4.314;2023-06-14T15:07:26;3.15;;;1.60;;
17714;SDS011;8977;50.902;4.314;2023-06-14T15:09:53;3.67;;;1.70;;